Time;durP1;ratioP1;P1;durP2;ratioP2;P2;SDS_P1;SDS_P2;PMS_P1;PMS_P2;Temp;Humidity;BMP_temperature;BMP_pressure;BME280_temperature;BME280_humidity;BME280_pressure;Samples;Min_cycle;Max_cycle;Signal;HPM_P1;HPM_P2
2023/02/13 05:54:57;;;;;;;104.05;52.35;;;;;;;;;;5034702;24;20531;-59
2023/02/13 05:57:23;;;;;;;95.10;48.17;;;;;;;;;;4843343;29;20113;-79
2023/02/13 05:59:49;;;;;;;104.93;52.20;;;;;;;;;;4843378;29;20537;-80
2023/02/13 06:02:15;;;;;;;109.13;54.17;;;;;;;;;;4843468;29;20108;-77
2023/02/13 06:04:41;;;;;;;112.85;56.15;;;;;;;;;;4851238;29;20034;-76
2023/02/13 06:07:07;;;;;;;112.80;56.55;;;;;;;;;;4846405;29;20028;-59
2023/02/13 06:09:33;;;;;;;118.72;59.03;;;;;;;;;;4860531;29;20040;-75
2023/02/13 06:11:59;;;;;;;112.82;57.47;;;;;;;;;;4860338;29;20040;-64
2023/02/13 06:14:25;;;;;;;117.50;60.00;;;;;;;;;;4860638;29;20025;-59
2023/02/13 06:16:51;;;;;;;116.97;59.28;;;;;;;;;;4860624;29;20121;-58
2023/02/13 06:19:17;;;;;;;112.35;58.80;;;;;;;;;;4860716;29;20521;-59
2023/02/13 06:21:43;;;;;;;134.43;65.45;;;;;;;;;;4861218;29;20118;-67
2023/02/13 06:24:09;;;;;;;160.32;80.95;;;;;;;;;;4860629;29;20065;-58
2023/02/13 06:26:35;;;;;;;172.20;90.25;;;;;;;;;;4860468;29;20440;-72
2023/02/13 06:29:01;;;;;;;161.63;85.47;;;;;;;;;;4848738;29;20105;-66
2023/02/13 06:31:27;;;;;;;173.02;84.63;;;;;;;;;;4842642;29;20129;-59
2023/02/13 06:33:53;;;;;;;153.13;80.57;;;;;;;;;;4842788;29;20057;-71
2023/02/13 06:36:19;;;;;;;155.75;83.80;;;;;;;;;;4842586;29;20026;-60
2023/02/13 06:38:45;;;;;;;158.50;80.22;;;;;;;;;;4842556;29;20030;-79
2023/02/13 06:41:11;;;;;;;145.65;78.85;;;;;;;;;;4842653;29;20089;-59
2023/02/13 06:43:37;;;;;;;135.70;73.15;;;;;;;;;;4842666;29;20034;-75
2023/02/13 06:46:07;;;;;;;118.57;61.33;;;;;;;;;;4842474;29;20483;-59
2023/02/13 06:48:33;;;;;;;111.32;56.95;;;;;;;;;;4842363;29;20026;-65
2023/02/13 06:51:00;;;;;;;111.05;56.78;;;;;;;;;;4842126;29;20048;-59
2023/02/13 06:53:27;;;;;;;109.88;55.25;;;;;;;;;;4842076;29;20475;-58
2023/02/13 06:55:53;;;;;;;104.65;55.20;;;;;;;;;;4841887;29;20127;-59
2023/02/13 06:58:20;;;;;;;106.07;55.10;;;;;;;;;;4841982;29;20030;-57
2023/02/13 07:00:46;;;;;;;106.57;53.67;;;;;;;;;;4841024;29;20041;-63
2023/02/13 07:03:12;;;;;;;100.43;51.38;;;;;;;;;;4823962;29;20107;-58
2023/02/13 07:05:42;;;;;;;95.05;48.83;;;;;;;;;;4840518;29;20030;-71
2023/02/13 07:08:11;;;;;;;92.88;48.55;;;;;;;;;;4840997;29;20041;-59
2023/02/13 07:10:38;;;;;;;96.20;50.25;;;;;;;;;;4840494;29;20056;-72
2023/02/13 07:13:05;;;;;;;97.60;52.08;;;;;;;;;;4840697;29;20574;-72
2023/02/13 07:15:31;;;;;;;97.13;50.55;;;;;;;;;;4841438;29;20170;-59
2023/02/13 07:17:58;;;;;;;103.20;54.75;;;;;;;;;;4840014;29;20030;-58
2023/02/13 07:20:25;;;;;;;132.48;70.65;;;;;;;;;;4841327;29;20034;-60
2023/02/13 07:22:51;;;;;;;148.90;80.53;;;;;;;;;;4841432;29;20038;-60
2023/02/13 07:25:17;;;;;;;141.20;75.63;;;;;;;;;;4841215;29;20046;-59
2023/02/13 07:27:43;;;;;;;217.30;102.82;;;;;;;;;;4841206;29;20034;-59
2023/02/13 07:30:09;;;;;;;191.13;83.07;;;;;;;;;;4840428;29;20041;-64
2023/02/13 07:32:35;;;;;;;140.05;70.47;;;;;;;;;;4839259;29;20026;-68
2023/02/13 07:35:01;;;;;;;125.70;64.45;;;;;;;;;;4839668;29;20953;-68
2023/02/13 07:37:28;;;;;;;116.65;62.10;;;;;;;;;;4841174;29;20129;-58
2023/02/13 07:39:54;;;;;;;116.95;61.58;;;;;;;;;;4841127;29;20186;-59
2023/02/13 07:42:20;;;;;;;111.05;58.78;;;;;;;;;;4839699;29;20762;-65
2023/02/13 07:44:46;;;;;;;102.97;53.60;;;;;;;;;;4840986;29;20109;-60
2023/02/13 07:47:12;;;;;;;114.57;59.22;;;;;;;;;;4840885;29;20116;-64
2023/02/13 07:49:38;;;;;;;143.57;70.53;;;;;;;;;;4840850;29;20109;-62
2023/02/13 07:52:05;;;;;;;165.95;78.07;;;;;;;;;;4840361;29;20133;-60
2023/02/13 07:54:31;;;;;;;132.18;65.03;;;;;;;;;;4839844;29;20057;-58
2023/02/13 07:56:57;;;;;;;119.80;62.97;;;;;;;;;;4840078;29;20482;-59
2023/02/13 07:59:23;;;;;;;96.22;50.58;;;;;;;;;;4839884;29;20095;-58
2023/02/13 08:01:49;;;;;;;84.45;45.97;;;;;;;;;;4840012;29;20032;-68
2023/02/13 08:04:15;;;;;;;81.97;43.38;;;;;;;;;;4839765;29;20029;-63
2023/02/13 08:06:42;;;;;;;83.93;44.78;;;;;;;;;;4839621;29;20030;-61
2023/02/13 08:11:58;;;;;;;81.90;44.97;;;;;;;;;;4839641;29;20409;-66
2023/02/13 08:14:26;;;;;;;84.43;45.42;;;;;;;;;;4839680;29;20471;-65
2023/02/13 08:16:53;;;;;;;91.03;47.97;;;;;;;;;;4839380;29;20038;-67
2023/02/13 08:19:19;;;;;;;104.88;52.03;;;;;;;;;;4839357;29;20030;-59
2023/02/13 08:21:45;;;;;;;97.32;51.50;;;;;;;;;;4839533;29;20029;-63
2023/02/13 08:24:12;;;;;;;95.47;52.10;;;;;;;;;;4839524;29;20057;-61
2023/02/13 08:26:38;;;;;;;124.75;65.32;;;;;;;;;;4839491;29;20474;-86
2023/02/13 08:29:05;;;;;;;120.00;65.03;;;;;;;;;;4839993;29;20026;-60
2023/02/13 08:31:31;;;;;;;100.75;55.58;;;;;;;;;;4842872;29;20041;-64
2023/02/13 08:33:57;;;;;;;105.35;57.35;;;;;;;;;;4839834;29;20038;-59
2023/02/13 08:36:23;;;;;;;105.20;54.35;;;;;;;;;;4840652;29;20498;-82
2023/02/13 08:38:49;;;;;;;120.25;61.80;;;;;;;;;;4840695;29;20116;-61
2023/02/13 08:41:22;;;;;;;116.78;60.75;;;;;;;;;;4840660;29;20064;-59
2023/02/13 08:43:49;;;;;;;70.10;37.90;;;;;;;;;;4839896;29;20041;-60
2023/02/13 08:46:16;;;;;;;63.92;35.92;;;;;;;;;;4839672;29;20037;-60
2023/02/13 08:48:42;;;;;;;58.42;32.40;;;;;;;;;;4839223;29;20040;-63
2023/02/13 08:51:09;;;;;;;55.28;29.63;;;;;;;;;;4839386;29;20478;-67
2023/02/13 08:53:35;;;;;;;52.08;28.58;;;;;;;;;;4839518;29;20029;-61
2023/02/13 08:56:01;;;;;;;48.88;27.42;;;;;;;;;;4839591;29;20057;-61
2023/02/13 08:58:28;;;;;;;60.72;31.02;;;;;;;;;;4840245;29;20038;-60
2023/02/13 09:00:54;;;;;;;50.10;26.63;;;;;;;;;;4840426;29;20450;-67
2023/02/13 09:03:20;;;;;;;49.13;26.95;;;;;;;;;;4857972;29;20081;-75
2023/02/13 09:05:46;;;;;;;49.90;27.50;;;;;;;;;;4858583;29;20040;-74
2023/02/13 09:08:12;;;;;;;49.03;27.65;;;;;;;;;;4858708;29;20034;-65
2023/02/13 09:10:39;;;;;;;50.65;28.30;;;;;;;;;;4858588;29;20041;-71
2023/02/13 09:13:05;;;;;;;53.40;28.23;;;;;;;;;;4846411;29;20505;-74
2023/02/13 09:15:31;;;;;;;48.22;27.52;;;;;;;;;;4839449;29;20386;-60
2023/02/13 09:17:58;;;;;;;54.72;28.98;;;;;;;;;;4837896;29;20042;-73
2023/02/13 09:20:24;;;;;;;52.95;30.10;;;;;;;;;;4837733;29;20471;-59
2023/02/13 09:22:50;;;;;;;55.97;31.15;;;;;;;;;;4837973;29;20161;-73
2023/02/13 09:25:16;;;;;;;53.70;29.80;;;;;;;;;;4838813;29;20034;-60
2023/02/13 09:27:42;;;;;;;50.38;29.42;;;;;;;;;;4838172;29;20595;-59
2023/02/13 09:30:09;;;;;;;53.80;30.15;;;;;;;;;;4838719;29;20030;-61
2023/02/13 09:32:36;;;;;;;54.80;30.70;;;;;;;;;;4839724;29;20491;-61
2023/02/13 09:35:02;;;;;;;55.00;30.48;;;;;;;;;;4837180;29;20061;-60
2023/02/13 09:37:28;;;;;;;61.92;34.08;;;;;;;;;;4836969;29;20033;-61
2023/02/13 09:39:54;;;;;;;63.53;34.83;;;;;;;;;;4838240;29;20067;-65
2023/02/13 09:42:25;;;;;;;57.90;31.33;;;;;;;;;;4837163;29;20026;-62
2023/02/13 09:45:02;;;;;;;53.47;28.08;;;;;;;;;;4835092;29;20034;-60
2023/02/13 09:47:28;;;;;;;44.03;22.70;;;;;;;;;;4839587;29;20081;-60
2023/02/13 09:50:13;;;;;;;42.67;23.45;;;;;;;;;;4839977;29;20030;-60
2023/02/13 09:52:40;;;;;;;40.10;22.15;;;;;;;;;;4838296;29;20033;-71
2023/02/13 09:55:19;;;;;;;40.15;23.40;;;;;;;;;;4836476;29;20436;-81
2023/02/13 09:57:53;;;;;;;45.83;22.10;;;;;;;;;;4837151;29;20056;-60
2023/02/13 10:00:26;;;;;;;39.85;21.73;;;;;;;;;;4837480;29;20030;-76
2023/02/13 10:02:58;;;;;;;47.13;25.38;;;;;;;;;;4839105;29;20030;-60
2023/02/13 10:05:33;;;;;;;113.95;59.63;;;;;;;;;;4840664;29;20032;-62
2023/02/13 10:08:08;;;;;;;49.28;24.52;;;;;;;;;;4824656;29;20040;-61
2023/02/13 10:10:37;;;;;;;41.17;22.48;;;;;;;;;;4838935;29;20041;-69
2023/02/13 10:13:15;;;;;;;37.28;20.45;;;;;;;;;;4839392;29;20062;-76
2023/02/13 22:20:53;;;;;;;100.20;46.35;;;;;;;;;;5119618;27;20120;-61
2023/02/13 22:23:19;;;;;;;105.63;49.70;;;;;;;;;;5105249;28;20035;-60
2023/02/13 22:25:49;;;;;;;98.13;47.85;;;;;;;;;;5107553;28;20059;-64
2023/02/13 22:28:15;;;;;;;107.90;50.13;;;;;;;;;;5106738;28;20027;-61
2023/02/13 22:30:41;;;;;;;103.05;49.65;;;;;;;;;;5106913;28;20394;-61
2023/02/13 22:33:07;;;;;;;97.13;48.90;;;;;;;;;;5107244;28;20024;-63
2023/02/13 22:35:37;;;;;;;102.63;49.60;;;;;;;;;;5106463;28;20016;-61
2023/02/13 22:38:03;;;;;;;101.57;50.65;;;;;;;;;;5105896;28;20035;-64
2023/02/13 22:40:29;;;;;;;95.13;47.85;;;;;;;;;;5105861;28;20032;-62
2023/02/13 22:42:55;;;;;;;104.70;50.38;;;;;;;;;;5105689;28;20019;-68
2023/02/13 22:45:21;;;;;;;102.88;51.42;;;;;;;;;;5105687;28;20033;-72
2023/02/13 22:47:47;;;;;;;101.85;50.92;;;;;;;;;;5105819;28;20020;-64
2023/02/13 22:50:13;;;;;;;95.50;48.58;;;;;;;;;;5105651;28;20028;-61
2023/02/13 22:52:39;;;;;;;102.32;50.58;;;;;;;;;;5105697;28;20028;-60
2023/02/13 22:55:05;;;;;;;114.13;54.83;;;;;;;;;;5093366;28;20067;-61
2023/02/13 22:57:31;;;;;;;118.45;60.10;;;;;;;;;;5071669;28;20016;-61
2023/02/13 22:59:57;;;;;;;112.43;57.00;;;;;;;;;;5075203;28;20098;-61
2023/02/13 23:02:23;;;;;;;122.35;62.90;;;;;;;;;;5077130;28;20387;-65
2023/02/13 23:04:50;;;;;;;125.25;58.92;;;;;;;;;;5074995;28;20425;-60
2023/02/13 23:07:17;;;;;;;111.30;55.03;;;;;;;;;;5077470;28;20029;-73
2023/02/13 23:09:46;;;;;;;106.15;55.38;;;;;;;;;;5084682;28;20442;-62
2023/02/13 23:14:58;;;;;;;104.57;51.88;;;;;;;;;;5087739;28;20565;-60
2023/02/13 23:20:10;;;;;;;92.50;46.50;;;;;;;;;;5072224;28;20463;-68
2023/02/13 23:22:36;;;;;;;89.28;44.75;;;;;;;;;;5067152;28;20032;-60
2023/02/13 23:25:04;;;;;;;91.90;45.42;;;;;;;;;;5067408;28;20091;-60
2023/02/13 23:27:34;;;;;;;101.65;49.38;;;;;;;;;;5066889;28;20048;-61
2023/02/13 23:30:01;;;;;;;105.70;51.70;;;;;;;;;;5066153;28;20033;-63
2023/02/13 23:32:27;;;;;;;96.88;48.40;;;;;;;;;;5053783;28;20052;-80
2023/02/13 23:34:53;;;;;;;84.70;42.08;;;;;;;;;;5053586;28;20075;-60
2023/02/13 23:37:19;;;;;;;76.47;39.13;;;;;;;;;;5053765;28;20040;-60
2023/02/13 23:39:45;;;;;;;73.50;37.35;;;;;;;;;;5054040;28;20080;-61
2023/02/13 23:42:11;;;;;;;67.57;35.60;;;;;;;;;;5053601;28;20032;-61
2023/02/13 23:44:37;;;;;;;69.60;33.13;;;;;;;;;;5054336;28;20024;-60
2023/02/13 23:47:03;;;;;;;64.18;34.45;;;;;;;;;;5053804;28;20025;-60
2023/02/13 23:49:29;;;;;;;66.43;34.88;;;;;;;;;;5053700;28;20506;-73
2023/02/13 23:51:55;;;;;;;64.25;32.17;;;;;;;;;;5051885;28;20395;-60
2023/02/13 23:54:25;;;;;;;62.38;34.03;;;;;;;;;;5053594;28;20025;-60
2023/02/13 23:56:52;;;;;;;66.38;32.70;;;;;;;;;;5053414;28;20040;-69
2023/02/13 23:59:19;;;;;;;73.90;34.83;;;;;;;;;;5053197;28;20040;-60
